Time;durP1;ratioP1;P1;durP2;ratioP2;P2;SDS_P1;SDS_P2;PMS_P1;PMS_P2;Temp;Humidity;BMP_temperature;BMP_pressure;BME280_temperature;BME280_humidity;BME280_pressure;Samples;Min_cycle;Max_cycle;Signal;HPM_P1;HPM_P2
2021/08/31 00:02:35;;;;;;;0.73;0.70;;;10.00;99.90;9.40;96766.00;;;;4968651;28;20231;-67
2021/08/31 00:05:24;;;;;;;0.77;0.77;;;9.90;99.90;9.30;96749.00;;;;4969255;28;20254;-68
2021/08/31 00:08:13;;;;;;;0.50;0.50;;;9.80;99.90;9.20;96747.00;;;;4953672;28;20218;-68
2021/08/31 00:11:02;;;;;;;0.63;0.60;;;9.70;99.90;9.30;96749.00;;;;4968698;28;20219;-70
2021/08/31 00:13:52;;;;;;;1.43;1.00;;;9.70;99.90;9.20;96747.00;;;;4968324;28;20219;-68
2021/08/31 00:16:42;;;;;;;0.97;0.60;;;9.60;99.90;9.10;96751.00;;;;4968378;28;20713;-70
2021/08/31 00:19:31;;;;;;;0.70;0.70;;;9.60;99.90;9.00;96757.00;;;;4968333;28;20593;-70
2021/08/31 00:22:20;;;;;;;0.73;0.60;;;9.50;99.90;9.00;96752.00;;;;4967706;28;20231;-71
2021/08/31 00:25:10;;;;;;;0.60;0.57;;;9.50;99.90;8.90;96761.00;;;;4968762;28;20630;-68
2021/08/31 00:27:59;;;;;;;0.60;0.60;;;9.40;99.90;8.80;96764.00;;;;4967107;28;20222;-67
2021/08/31 00:30:49;;;;;;;0.63;0.63;;;9.40;99.90;8.70;96760.00;;;;4967842;28;20207;-67
2021/08/31 00:33:38;;;;;;;0.88;0.70;;;9.30;99.90;8.60;96764.00;;;;4967338;28;20397;-67
2021/08/31 00:36:27;;;;;;;0.75;0.70;;;9.20;99.90;8.80;96764.00;;;;4967569;28;20404;-68
2021/08/31 00:39:16;;;;;;;1.63;0.70;;;9.20;99.90;9.10;96758.00;;;;4966492;28;20218;-69
2021/08/31 00:42:05;;;;;;;2.20;0.63;;;9.30;99.90;9.30;96757.00;;;;4967285;28;20222;-68
2021/08/31 00:44:54;;;;;;;0.80;0.80;;;9.40;99.90;9.30;96769.00;;;;4967663;28;20219;-67
2021/08/31 00:47:45;;;;;;;0.50;0.50;;;9.40;99.90;9.30;96760.00;;;;4960053;28;20238;-68
2021/08/31 00:50:34;;;;;;;0.57;0.57;;;9.50;99.90;9.20;96771.00;;;;4966969;28;20694;-68
2021/08/31 00:53:23;;;;;;;0.80;0.73;;;9.50;99.90;9.00;96764.00;;;;4968238;28;20223;-70
2021/08/31 00:56:12;;;;;;;0.70;0.70;;;9.40;99.90;8.80;96772.00;;;;4966999;28;20203;-68
2021/08/31 00:59:01;;;;;;;0.70;0.67;;;9.30;99.90;8.90;96775.00;;;;4967076;28;20631;-70
2021/08/31 01:01:52;;;;;;;1.93;0.73;;;9.30;99.90;9.00;96779.00;;;;4955889;28;20234;-68
2021/08/31 01:04:42;;;;;;;0.73;0.70;;;9.30;99.90;9.10;96762.00;;;;4967480;28;20206;-68
2021/08/31 01:07:31;;;;;;;1.10;1.00;;;9.30;99.90;9.20;96769.00;;;;4956921;28;20529;-67
2021/08/31 01:10:20;;;;;;;1.57;0.60;;;9.40;99.90;9.30;96759.00;;;;4966751;28;20215;-68
2021/08/31 01:13:09;;;;;;;0.70;0.70;;;9.40;99.90;9.10;96764.00;;;;4967542;28;20239;-67
2021/08/31 01:15:58;;;;;;;0.77;0.73;;;9.40;99.90;9.20;96762.00;;;;4967487;28;20262;-68
2021/08/31 01:18:47;;;;;;;0.80;0.80;;;9.40;99.90;9.20;96767.00;;;;4957573;28;20238;-67
2021/08/31 01:21:38;;;;;;;2.93;0.70;;;9.40;99.90;9.40;96763.00;;;;4967469;28;20314;-68
2021/08/31 01:24:27;;;;;;;0.67;0.40;;;9.50;99.90;9.30;96760.00;;;;4966386;28;20690;-69
2021/08/31 01:27:18;;;;;;;1.67;0.80;;;9.50;99.90;9.20;96774.00;;;;4967543;28;20230;-68
2021/08/31 01:30:08;;;;;;;0.93;0.73;;;9.50;99.90;8.90;96759.00;;;;4967563;28;20211;-70
2021/08/31 01:32:57;;;;;;;2.53;1.13;;;9.50;99.90;9.10;96762.00;;;;4967611;28;20227;-68
2021/08/31 01:35:46;;;;;;;0.63;0.63;;;9.40;99.90;9.20;96759.00;;;;4968277;28;20209;-67
2021/08/31 01:38:35;;;;;;;0.60;0.60;;;9.40;99.90;9.20;96756.00;;;;4967459;28;20558;-67
2021/08/31 01:41:26;;;;;;;1.00;0.83;;;9.50;99.90;9.20;96752.00;;;;4966834;28;20227;-68
2021/08/31 01:44:16;;;;;;;0.63;0.50;;;9.50;99.90;9.20;96751.00;;;;4966379;28;20586;-69
2021/08/31 01:47:05;;;;;;;0.63;0.63;;;9.50;99.90;9.10;96746.00;;;;4963553;28;20224;-68
2021/08/31 01:49:54;;;;;;;1.10;1.00;;;9.50;99.90;9.20;96747.00;;;;4966279;28;20655;-68
2021/08/31 01:52:43;;;;;;;1.60;0.90;;;9.50;99.90;9.00;96749.00;;;;4966639;28;20242;-68
2021/08/31 01:55:32;;;;;;;0.97;0.80;;;9.50;99.90;8.80;96745.00;;;;4967347;28;20690;-69
2021/08/31 01:58:21;;;;;;;1.20;0.80;;;9.40;99.90;8.90;96743.00;;;;4953830;28;20204;-68
2021/08/31 02:01:12;;;;;;;0.70;0.70;;;9.40;99.90;9.00;96727.00;;;;4956817;28;20228;-68
2021/08/31 02:04:01;;;;;;;1.00;1.00;;;9.40;99.90;9.10;96736.00;;;;4965413;28;20710;-68
2021/08/31 02:06:50;;;;;;;1.13;1.00;;;9.40;99.90;9.30;96731.00;;;;4962610;28;20235;-68
2021/08/31 02:09:39;;;;;;;1.87;0.80;;;9.40;99.90;9.30;96732.00;;;;4960964;28;20207;-67
2021/08/31 02:12:28;;;;;;;0.77;0.70;;;9.90;99.90;8.80;96718.00;;;;4966503;28;20238;-69
2021/08/31 02:15:17;;;;;;;3.47;1.00;;;9.40;99.90;9.00;96728.00;;;;4966833;28;20203;-68
2021/08/31 02:18:08;;;;;;;1.10;0.90;;;8.20;99.90;9.20;96727.00;;;;4965946;28;20595;-68
2021/08/31 02:20:56;;;;;;;1.30;1.20;;;9.40;99.90;9.20;96730.00;;;;4966750;28;20679;-69
2021/08/31 02:23:45;;;;;;;2.83;0.90;;;9.40;99.90;9.30;96740.00;;;;4959197;28;20227;-68
2021/08/31 02:26:34;;;;;;;0.90;0.90;;;9.50;99.90;9.30;96732.00;;;;4970044;28;20444;-67
2021/08/31 02:29:25;;;;;;;0.70;0.70;;;9.50;99.90;9.30;96734.00;;;;4970531;28;20219;-70
2021/08/31 02:32:13;;;;;;;0.70;0.70;;;9.50;99.90;9.40;96725.00;;;;4970496;28;20215;-68
2021/08/31 02:35:04;;;;;;;0.60;0.60;;;9.50;99.90;9.40;96728.00;;;;4958770;28;20258;-69
2021/08/31 02:37:53;;;;;;;1.53;0.90;;;9.60;99.90;9.40;96728.00;;;;4968461;28;20207;-68
2021/08/31 02:40:42;;;;;;;1.57;0.70;;;9.60;99.90;9.40;96723.00;;;;4970721;28;20219;-69
2021/08/31 02:43:31;;;;;;;1.33;0.70;;;9.60;99.90;9.30;96721.00;;;;4970068;28;20219;-67
2021/08/31 02:46:22;;;;;;;1.10;1.00;;;9.50;99.90;9.10;96724.00;;;;4970147;28;20219;-67
2021/08/31 02:49:11;;;;;;;1.03;1.00;;;9.50;99.90;9.00;96725.00;;;;4968118;28;20229;-71
2021/08/31 02:52:01;;;;;;;0.77;0.77;;;9.50;99.90;8.90;96721.00;;;;4969560;28;20231;-67
2021/08/31 02:54:50;;;;;;;0.90;0.90;;;9.40;99.90;9.00;96723.00;;;;4970787;28;20206;-68
2021/08/31 02:57:39;;;;;;;3.40;1.00;;;9.40;99.90;9.10;96725.00;;;;4966841;28;20675;-70
2021/08/31 03:00:31;;;;;;;1.60;1.07;;;9.40;99.90;9.00;96723.00;;;;4968701;28;20683;-68
2021/08/31 03:03:20;;;;;;;0.53;0.53;;;9.40;99.90;8.80;96723.00;;;;4968382;28;20229;-67
2021/08/31 03:06:09;;;;;;;0.70;0.70;;;9.40;99.90;8.80;96735.00;;;;4955654;28;20208;-69
2021/08/31 03:09:00;;;;;;;0.63;0.63;;;9.30;99.90;8.60;96724.00;;;;4955810;28;20265;-67
2021/08/31 03:11:48;;;;;;;0.67;0.67;;;9.20;99.90;8.70;96733.00;;;;4968451;28;20227;-67
2021/08/31 03:14:38;;;;;;;0.80;0.80;;;9.20;99.90;8.60;96730.00;;;;4969397;28;20588;-69
2021/08/31 03:17:27;;;;;;;0.80;0.80;;;9.10;99.90;8.50;96729.00;;;;4955390;28;20199;-67
2021/08/31 03:20:15;;;;;;;0.80;0.80;;;9.00;99.90;8.70;96728.00;;;;4969568;28;20218;-68
2021/08/31 03:23:05;;;;;;;0.93;0.90;;;9.00;99.90;8.80;96721.00;;;;4961914;28;20220;-68
2021/08/31 03:25:55;;;;;;;1.47;1.07;;;9.00;99.90;8.90;96733.00;;;;4960047;28;20624;-71
2021/08/31 03:28:44;;;;;;;2.87;0.80;;;9.00;99.90;8.90;96729.00;;;;4956734;28;20216;-69
2021/08/31 03:31:33;;;;;;;3.63;1.13;;;9.10;99.90;8.60;96740.00;;;;4963562;28;20235;-68
2021/08/31 03:34:22;;;;;;;1.20;1.00;;;9.10;99.90;8.70;96732.00;;;;4969250;28;20207;-66
2021/08/31 03:37:11;;;;;;;0.77;0.77;;;9.10;99.90;8.60;96729.00;;;;4966157;28;20585;-68
2021/08/31 03:39:59;;;;;;;1.80;1.00;;;9.00;99.90;8.60;96736.00;;;;4955611;28;20204;-67
2021/08/31 03:42:50;;;;;;;1.37;1.10;;;9.00;99.90;8.60;96744.00;;;;4967809;28;20227;-67
2021/08/31 03:45:39;;;;;;;6.17;1.13;;;9.00;99.90;8.50;96739.00;;;;4956322;28;20679;-67
2021/08/31 03:48:28;;;;;;;3.00;1.00;;;8.90;99.90;8.60;96744.00;;;;4967963;28;20231;-67
2021/08/31 03:51:17;;;;;;;0.90;0.90;;;8.90;99.90;8.70;96744.00;;;;4968578;28;20226;-69
2021/08/31 03:54:06;;;;;;;0.70;0.70;;;8.90;99.90;8.80;96740.00;;;;4968350;28;20214;-66
2021/08/31 03:56:55;;;;;;;1.70;1.13;;;9.00;99.90;8.70;96746.00;;;;4966155;28;20234;-67
2021/08/31 03:59:45;;;;;;;0.87;0.87;;;9.00;99.90;8.60;96759.00;;;;4967222;28;20195;-66
2021/08/31 04:02:34;;;;;;;1.63;1.27;;;9.00;99.90;8.50;96745.00;;;;4967335;28;20227;-66
2021/08/31 04:05:23;;;;;;;4.10;1.03;;;8.90;99.90;8.50;96752.00;;;;4968504;28;20285;-68
2021/08/31 04:08:12;;;;;;;0.80;0.80;;;8.90;99.90;8.70;96753.00;;;;4956320;28;20220;-67
2021/08/31 04:11:01;;;;;;;1.30;1.13;;;8.90;99.90;8.90;96751.00;;;;4955631;28;20214;-70
2021/08/31 04:13:50;;;;;;;1.30;1.20;;;9.00;99.90;8.70;96754.00;;;;4967172;28;20613;-66
2021/08/31 04:16:40;;;;;;;1.20;1.10;;;9.00;99.90;8.50;96746.00;;;;4966991;28;20204;-67
2021/08/31 04:19:29;;;;;;;1.30;1.20;;;9.00;99.90;8.30;96747.00;;;;4967985;28;20509;-66
2021/08/31 04:22:18;;;;;;;0.90;0.90;;;8.90;99.90;8.40;96752.00;;;;4967045;28;20249;-69
2021/08/31 04:25:08;;;;;;;0.60;0.60;;;8.80;99.90;8.50;96755.00;;;;4968527;28;20203;-69
2021/08/31 04:27:57;;;;;;;1.30;1.17;;;8.80;99.90;8.60;96755.00;;;;4966845;28;20227;-71
2021/08/31 04:30:46;;;;;;;1.00;0.80;;;8.90;99.90;8.60;96755.00;;;;4964851;28;20219;-70
2021/08/31 04:33:37;;;;;;;0.93;0.87;;;8.90;99.90;8.70;96752.00;;;;4967083;28;20532;-68
2021/08/31 04:36:25;;;;;;;1.20;1.10;;;8.90;99.90;8.90;96753.00;;;;4967914;28;20211;-71
2021/08/31 04:39:14;;;;;;;0.97;0.97;;;9.00;99.90;8.60;96756.00;;;;4957158;28;20203;-68
2021/08/31 04:42:05;;;;;;;1.10;1.00;;;9.00;99.90;8.70;96749.00;;;;4966105;28;20227;-70
2021/08/31 04:44:54;;;;;;;1.20;1.10;;;9.00;99.90;8.80;96747.00;;;;4966133;28;20265;-68
2021/08/31 04:47:43;;;;;;;0.90;0.90;;;9.10;99.90;9.00;96756.00;;;;4958016;28;20203;-71
2021/08/31 04:50:33;;;;;;;1.07;1.03;;;9.50;99.90;9.00;96756.00;;;;4958194;28;20698;-70
2021/08/31 04:53:23;;;;;;;2.90;1.30;;;9.20;99.90;8.70;96749.00;;;;4966962;28;20222;-70
2021/08/31 04:56:11;;;;;;;1.90;1.23;;;9.20;99.90;8.60;96762.00;;;;4966635;28;20216;-67
2021/08/31 04:59:00;;;;;;;1.57;1.47;;;9.10;99.90;8.60;96764.00;;;;4957533;28;20679;-68
2021/08/31 05:01:49;;;;;;;1.63;1.50;;;9.00;99.90;8.90;96760.00;;;;4960847;28;20695;-67
2021/08/31 05:04:38;;;;;;;1.83;1.73;;;9.10;99.90;9.00;96774.00;;;;4962909;28;20214;-70
2021/08/31 05:07:28;;;;;;;3.27;1.57;;;9.10;99.90;9.20;96759.00;;;;4960808;28;20207;-68
2021/08/31 05:10:17;;;;;;;1.70;1.20;;;9.20;99.90;9.10;96752.00;;;;4960956;28;20226;-68
2021/08/31 05:13:06;;;;;;;1.60;1.50;;;9.30;99.90;9.20;96752.00;;;;4956644;28;20227;-68
2021/08/31 05:15:55;;;;;;;1.83;1.47;;;9.30;99.90;9.30;96743.00;;;;4961211;28;20215;-69
2021/08/31 05:18:44;;;;;;;2.90;1.20;;;9.40;99.90;9.20;96744.00;;;;4965563;28;20581;-69
2021/08/31 05:21:33;;;;;;;1.00;0.90;;;9.50;99.90;9.50;96755.00;;;;4967338;28;20262;-71
2021/08/31 05:24:23;;;;;;;2.60;1.00;;;9.50;99.90;9.20;96743.00;;;;4966494;28;20222;-68
2021/08/31 05:27:13;;;;;;;2.83;2.00;;;9.50;99.90;9.30;96742.00;;;;4966143;28;20226;-68
2021/08/31 05:30:01;;;;;;;1.07;0.97;;;9.60;99.90;9.60;96750.00;;;;4967650;28;20234;-68
2021/08/31 05:32:50;;;;;;;1.10;1.00;;;9.70;99.90;9.70;96740.00;;;;4967492;28;20227;-68
2021/08/31 05:35:39;;;;;;;1.10;0.97;;;9.80;99.90;10.00;96755.00;;;;4966891;28;20211;-69
2021/08/31 05:38:28;;;;;;;1.30;1.20;;;9.90;99.90;10.00;96762.00;;;;4966247;28;20219;-68
2021/08/31 05:41:18;;;;;;;1.97;1.30;;;10.00;99.90;10.00;96751.00;;;;4961125;28;20223;-68
2021/08/31 05:44:07;;;;;;;1.30;1.03;;;10.00;99.90;10.10;96755.00;;;;4960102;28;20219;-69
2021/08/31 05:46:56;;;;;;;1.33;1.13;;;10.10;99.90;10.10;96759.00;;;;4960610;28;20207;-68
2021/08/31 05:49:45;;;;;;;1.40;1.30;;;10.20;99.90;10.00;96756.00;;;;4961183;28;20223;-67
2021/08/31 05:52:34;;;;;;;1.40;1.17;;;10.30;99.90;10.20;96750.00;;;;4964473;28;20231;-69
2021/08/31 05:55:23;;;;;;;1.30;1.20;;;10.30;99.90;10.30;96757.00;;;;4953987;28;20204;-67
2021/08/31 05:58:14;;;;;;;0.90;0.90;;;10.40;99.90;10.30;96750.00;;;;4968734;28;20217;-67
2021/08/31 06:01:04;;;;;;;1.20;1.10;;;10.40;99.90;10.40;96742.00;;;;4971614;28;20211;-69
2021/08/31 06:03:52;;;;;;;1.00;0.90;;;10.50;99.90;10.50;96748.00;;;;4969692;28;20215;-67
2021/08/31 06:06:41;;;;;;;1.73;1.10;;;10.50;99.90;10.40;96747.00;;;;4971086;28;20246;-68
2021/08/31 06:09:31;;;;;;;2.27;1.10;;;10.60;99.90;10.50;96744.00;;;;4959104;28;20238;-68
2021/08/31 06:12:20;;;;;;;1.43;1.33;;;10.60;99.90;10.60;96745.00;;;;4970305;28;20226;-68
2021/08/31 06:15:12;;;;;;;2.93;1.20;;;10.70;99.90;10.50;96746.00;;;;4970150;28;20593;-67
2021/08/31 06:18:01;;;;;;;1.27;1.17;;;10.70;99.90;10.60;96747.00;;;;4961437;28;20203;-69
2021/08/31 06:20:52;;;;;;;1.43;1.33;;;10.80;99.90;10.70;96762.00;;;;4958531;28;20209;-68
2021/08/31 06:23:41;;;;;;;1.10;1.00;;;10.80;99.90;10.80;96752.00;;;;4959070;28;20213;-69
2021/08/31 06:26:32;;;;;;;1.17;1.07;;;10.90;99.90;10.80;96742.00;;;;4962152;28;20210;-68
2021/08/31 06:29:21;;;;;;;1.40;1.30;;;11.00;99.90;11.10;96743.00;;;;4961826;28;20219;-69
2021/08/31 06:32:11;;;;;;;1.33;1.23;;;11.10;99.90;11.20;96750.00;;;;4966513;28;20227;-67
2021/08/31 06:35:00;;;;;;;2.07;1.00;;;11.20;99.90;11.30;96746.00;;;;4962639;28;20675;-67
2021/08/31 06:37:49;;;;;;;2.57;1.13;;;11.30;99.90;11.20;96741.00;;;;4965472;28;20219;-70
2021/08/31 06:40:38;;;;;;;1.40;1.30;;;11.30;99.90;11.30;96741.00;;;;4960061;28;20232;-69
2021/08/31 06:43:29;;;;;;;2.67;1.60;;;11.40;99.90;11.70;96735.00;;;;4965207;28;20214;-68
2021/08/31 06:46:19;;;;;;;2.63;1.20;;;11.60;99.90;11.70;96742.00;;;;4968556;28;20702;-68
2021/08/31 06:49:12;;;;;;;1.37;1.27;;;11.70;99.90;11.70;96732.00;;;;4967381;28;20250;-69
2021/08/31 06:52:01;;;;;;;2.73;1.57;;;11.80;99.90;11.80;96743.00;;;;4969594;28;20224;-67
2021/08/31 06:54:49;;;;;;;1.37;1.27;;;11.80;99.90;11.80;96736.00;;;;4969869;28;20211;-69
2021/08/31 06:57:39;;;;;;;1.60;1.50;;;11.90;99.90;11.80;96733.00;;;;4968590;28;20215;-68
2021/08/31 07:00:27;;;;;;;2.63;1.50;;;12.00;99.90;11.90;96739.00;;;;4958312;28;20203;-69
2021/08/31 07:03:16;;;;;;;11.60;6.63;;;12.00;99.90;12.20;96742.00;;;;4969959;28;20215;-68
2021/08/31 07:06:07;;;;;;;17.67;10.33;;;12.20;99.90;12.30;96742.00;;;;4969593;28;20578;-67
2021/08/31 07:08:56;;;;;;;8.43;4.57;;;12.30;99.90;12.30;96741.00;;;;4955405;28;20273;-68
2021/08/31 07:11:45;;;;;;;3.33;2.93;;;12.40;99.90;12.50;96742.00;;;;4970088;28;20227;-68
2021/08/31 07:14:34;;;;;;;4.73;4.33;;;12.50;99.90;12.70;96747.00;;;;4968598;28;20218;-70
2021/08/31 07:17:23;;;;;;;5.63;1.97;;;12.60;99.90;12.70;96761.00;;;;4969154;28;20207;-68
2021/08/31 07:20:13;;;;;;;1.77;1.67;;;12.70;99.90;12.90;96752.00;;;;4968501;28;20218;-68
2021/08/31 07:23:03;;;;;;;4.27;2.07;;;12.80;99.90;13.20;96747.00;;;;4969801;28;20223;-68
2021/08/31 07:26:00;;;;;;;4.30;1.77;;;12.90;99.90;13.40;96751.00;;;;4969621;28;20214;-69
2021/08/31 07:28:49;;;;;;;1.73;1.57;;;13.10;99.90;13.80;96761.00;;;;4968633;28;20219;-68
2021/08/31 07:31:44;;;;;;;1.97;1.80;;;13.30;99.90;14.00;96777.00;;;;4969859;28;20232;-68
2021/08/31 07:34:33;;;;;;;1.63;1.50;;;13.50;99.90;14.10;96783.00;;;;4967897;28;20199;-68
2021/08/31 07:37:22;;;;;;;4.23;1.60;;;13.70;99.90;14.40;96773.00;;;;4968580;28;20199;-68
2021/08/31 07:40:14;;;;;;;4.13;2.17;;;13.90;99.90;14.60;96785.00;;;;4969688;28;20203;-68
2021/08/31 07:43:03;;;;;;;4.57;1.43;;;14.10;99.90;14.60;96787.00;;;;4961628;28;20706;-72
2021/08/31 07:45:52;;;;;;;2.23;1.27;;;14.30;99.90;14.60;96782.00;;;;4962487;28;20664;-68
2021/08/31 07:48:41;;;;;;;2.43;1.53;;;14.40;99.90;14.70;96784.00;;;;4958461;28;20207;-68
2021/08/31 07:51:30;;;;;;;2.63;1.53;;;14.50;99.90;14.60;96787.00;;;;4960821;28;20235;-69
2021/08/31 07:54:19;;;;;;;1.50;1.23;;;14.50;99.90;14.50;96793.00;;;;4965418;28;20230;-68
2021/08/31 07:57:09;;;;;;;2.27;1.43;;;14.50;99.90;14.60;96795.00;;;;4959780;28;20208;-71
2021/08/31 07:59:58;;;;;;;2.07;0.90;;;14.50;99.90;14.50;96798.00;;;;4961571;28;20196;-69
2021/08/31 08:02:47;;;;;;;2.10;1.43;;;14.50;99.90;14.30;96796.00;;;;4967243;28;20226;-68
2021/08/31 08:05:36;;;;;;;1.27;1.17;;;14.50;99.90;14.50;96793.00;;;;4964698;28;20356;-68
2021/08/31 08:08:25;;;;;;;4.47;1.63;;;14.50;99.90;14.70;96798.00;;;;4956525;28;20204;-68
2021/08/31 08:11:14;;;;;;;3.03;1.63;;;14.50;99.90;14.50;96795.00;;;;4958963;28;20255;-71
2021/08/31 08:14:05;;;;;;;1.67;1.50;;;14.50;99.90;14.40;96800.00;;;;4967802;28;20207;-68
2021/08/31 08:16:54;;;;;;;1.60;1.47;;;14.50;99.90;14.40;96808.00;;;;4967522;28;20218;-68
2021/08/31 08:19:43;;;;;;;5.53;1.57;;;15.40;99.90;14.60;96814.00;;;;4967554;28;20218;-68
2021/08/31 08:22:31;;;;;;;1.40;1.30;;;14.50;99.90;14.70;96807.00;;;;4964783;28;20231;-68
2021/08/31 08:25:20;;;;;;;0.93;0.80;;;14.60;99.90;14.70;96809.00;;;;4959285;28;20223;-69
2021/08/31 08:28:10;;;;;;;1.57;1.17;;;14.60;99.90;14.70;96811.00;;;;4960578;28;20208;-69
2021/08/31 08:31:00;;;;;;;2.20;1.40;;;14.70;99.90;14.70;96797.00;;;;4967384;28;20229;-68
2021/08/31 08:33:49;;;;;;;6.43;1.63;;;14.70;99.90;14.90;96808.00;;;;4967634;28;20234;-68
2021/08/31 08:36:38;;;;;;;1.57;1.33;;;14.80;99.90;14.80;96808.00;;;;4967245;28;20211;-69
2021/08/31 08:39:28;;;;;;;1.40;1.30;;;14.80;99.90;15.00;96809.00;;;;4952857;28;20207;-69
2021/08/31 08:42:17;;;;;;;3.13;1.30;;;14.90;99.90;15.10;96802.00;;;;4959831;28;20223;-69
2021/08/31 08:45:09;;;;;;;1.93;1.30;;;15.00;99.90;15.40;96798.00;;;;4968113;28;20230;-68
2021/08/31 08:47:59;;;;;;;2.47;1.20;;;15.10;99.90;15.70;96807.00;;;;4965042;28;20200;-68
2021/08/31 08:50:51;;;;;;;2.33;1.40;;;15.30;99.90;16.60;96817.00;;;;4965284;28;20606;-68
2021/08/31 08:53:44;;;;;;;1.20;1.10;;;15.60;99.90;16.50;96818.00;;;;4959901;28;20250;-70
2021/08/31 08:56:33;;;;;;;1.20;1.10;;;15.90;99.90;16.50;96827.00;;;;4967906;28;20229;-70
2021/08/31 08:59:23;;;;;;;2.63;1.10;;;16.00;99.90;16.60;96825.00;;;;4965446;28;20682;-68
2021/08/31 09:02:32;;;;;;;3.53;1.43;;;16.20;99.90;16.90;96825.00;;;;4964494;28;20718;-69
2021/08/31 09:05:33;;;;;;;5.20;1.50;;;16.40;99.90;17.00;96828.00;;;;4966327;28;20207;-68
2021/08/31 09:08:24;;;;;;;1.17;0.87;;;16.50;99.90;17.30;96829.00;;;;4954715;28;20741;-69
2021/08/31 09:11:23;;;;;;;1.90;1.33;;;16.70;99.90;17.60;96832.00;;;;4957161;28;20231;-68
2021/08/31 09:14:22;;;;;;;3.53;1.30;;;16.90;99.90;17.60;96837.00;;;;4954383;28;20207;-68
2021/08/31 09:17:11;;;;;;;3.83;1.30;;;17.00;99.90;17.40;96834.00;;;;4967919;28;20211;-68
2021/08/31 09:20:16;;;;;;;6.17;1.30;;;17.10;99.90;17.50;96827.00;;;;4966662;28;20221;-71
2021/08/31 09:23:10;;;;;;;1.10;1.00;;;17.20;99.90;17.20;96826.00;;;;4968259;28;20226;-67
2021/08/31 09:26:06;;;;;;;3.50;1.17;;;17.20;99.90;17.00;96815.00;;;;4967394;28;20207;-68
2021/08/31 09:28:55;;;;;;;1.43;1.10;;;17.10;99.90;17.20;96819.00;;;;4955167;28;20220;-69
2021/08/31 09:32:10;;;;;;;1.73;1.63;;;17.10;99.90;17.60;96815.00;;;;4965482;28;20235;-71
2021/08/31 09:34:58;;;;;;;2.30;1.10;;;18.40;99.90;18.20;96805.00;;;;4961364;28;20687;-70
2021/08/31 09:37:49;;;;;;;12.70;1.70;;;17.40;99.90;18.50;96808.00;;;;4951734;28;20261;-68
2021/08/31 09:40:41;;;;;;;6.30;1.00;;;17.80;99.90;18.60;96793.00;;;;4962551;28;20210;-70
2021/08/31 09:43:30;;;;;;;2.23;0.70;;;18.10;99.90;18.90;96796.00;;;;4953020;28;20215;-70
2021/08/31 09:46:19;;;;;;;4.30;1.33;;;18.40;99.90;19.50;96792.00;;;;4968637;28;20475;-69
2021/08/31 09:49:20;;;;;;;1.40;1.27;;;18.60;99.90;19.60;96799.00;;;;4967337;28;20679;-68
2021/08/31 09:52:12;;;;;;;0.80;0.80;;;19.10;99.90;18.90;96814.00;;;;4968790;28;20899;-68
2021/08/31 09:55:01;;;;;;;1.63;1.10;;;19.00;99.90;19.20;96766.00;;;;4969149;28;20211;-70
2021/08/31 09:57:51;;;;;;;1.30;0.77;;;19.10;99.90;20.20;96798.00;;;;4966686;28;20199;-70
2021/08/31 10:00:42;;;;;;;2.77;0.63;;;19.40;99.90;20.50;96810.00;;;;4965319;28;20286;-68
2021/08/31 10:03:33;;;;;;;0.90;0.57;;;19.60;99.90;20.60;96792.00;;;;4961375;28;20207;-69
2021/08/31 10:06:22;;;;;;;1.83;0.60;;;19.80;99.90;20.90;96803.00;;;;4963054;28;20266;-70
2021/08/31 10:09:11;;;;;;;0.63;0.60;;;20.10;99.90;21.40;96789.00;;;;4953626;28;20211;-68
2021/08/31 10:12:01;;;;;;;1.23;0.53;;;20.30;99.90;21.50;96792.00;;;;4957873;28;20238;-70
2021/08/31 10:14:57;;;;;;;1.00;0.67;;;20.60;99.90;21.50;96799.00;;;;4955617;28;20215;-70
2021/08/31 10:17:46;;;;;;;1.00;0.67;;;20.80;99.90;21.50;96805.00;;;;4956115;28;20711;-68
2021/08/31 10:20:40;;;;;;;0.50;0.50;;;20.90;99.90;21.40;96802.00;;;;4965997;28;20207;-69
2021/08/31 10:23:38;;;;;;;0.37;0.33;;;20.90;99.90;21.50;96815.00;;;;4967886;28;20342;-68
2021/08/31 10:26:30;;;;;;;1.17;0.90;;;21.00;99.90;21.40;96817.00;;;;4967528;28;20207;-68
2021/08/31 10:29:29;;;;;;;7.17;4.97;;;21.00;99.90;21.60;96811.00;;;;4968372;28;20204;-68
2021/08/31 10:32:33;;;;;;;1.10;1.00;;;21.00;99.90;21.70;96808.00;;;;4961455;28;20231;-70
2021/08/31 10:35:56;;;;;;;1.77;0.77;;;21.10;99.90;21.70;96815.00;;;;4956180;28;20207;-70
2021/08/31 10:38:55;;;;;;;0.47;0.47;;;21.20;99.90;21.50;96812.00;;;;4958098;28;20207;-69
2021/08/31 10:41:49;;;;;;;0.83;0.70;;;21.20;99.90;21.50;96809.00;;;;4968612;28;20591;-68
2021/08/31 10:44:43;;;;;;;3.33;2.30;;;21.10;99.90;21.30;96806.00;;;;4964296;28;20211;-67
2021/08/31 10:47:36;;;;;;;2.37;0.83;;;21.00;99.90;21.30;96798.00;;;;4964733;28;20215;-68
2021/08/31 10:50:26;;;;;;;0.40;0.40;;;21.00;99.90;21.50;96803.00;;;;4962888;28;20583;-70
2021/08/31 10:53:39;;;;;;;2.33;0.43;;;21.00;99.90;22.00;96782.00;;;;4967208;28;20238;-69
2021/08/31 10:56:29;;;;;;;0.40;0.40;;;21.20;99.90;22.80;96795.00;;;;4966255;28;20258;-71
2021/08/31 10:59:34;;;;;;;0.73;0.50;;;21.50;99.90;23.50;96747.00;;;;4966285;28;20593;-67
2021/08/31 11:02:57;;;;;;;1.27;0.80;;;22.00;99.90;23.20;96799.00;;;;4962653;28;20715;-69
2021/08/31 11:05:46;;;;;;;0.90;0.63;;;22.20;99.70;23.10;96785.00;;;;4963423;28;20210;-67
2021/08/31 11:08:35;;;;;;;1.00;0.57;;;22.40;99.60;23.00;96794.00;;;;4959521;28;20204;-69
2021/08/31 11:11:24;;;;;;;0.57;0.40;;;22.50;98.00;22.20;96799.00;;;;4963542;28;20268;-69
2021/08/31 11:14:14;;;;;;;0.47;0.30;;;22.50;93.60;21.30;96787.00;;;;4967138;28;20566;-69
2021/08/31 11:17:04;;;;;;;0.30;0.30;;;22.10;91.40;21.90;96797.00;;;;4966220;28;20195;-71
2021/08/31 11:20:13;;;;;;;1.10;0.40;;;21.80;93.30;22.10;96799.00;;;;4967055;28;20218;-68
2021/08/31 11:23:14;;;;;;;0.30;0.23;;;21.70;93.50;22.10;96803.00;;;;4966931;28;20222;-70
2021/08/31 11:26:05;;;;;;;0.50;0.50;;;21.70;94.40;22.40;96796.00;;;;4967863;28;20198;-68
2021/08/31 11:28:55;;;;;;;0.93;0.70;;;21.70;96.60;23.60;96729.00;;;;4956447;28;20207;-69
2021/08/31 11:31:44;;;;;;;0.60;0.40;;;22.10;98.70;23.90;96791.00;;;;4957681;28;20227;-69
2021/08/31 11:34:34;;;;;;;0.50;0.37;;;22.60;96.90;24.50;96780.00;;;;4965232;28;20226;-68
2021/08/31 11:37:24;;;;;;;0.30;0.30;;;23.00;96.20;25.50;96795.00;;;;4957996;28;20299;-68
2021/08/31 11:40:17;;;;;;;0.30;0.30;;;23.60;94.50;24.30;96771.00;;;;4967495;28;20446;-68
2021/08/31 11:43:07;;;;;;;0.20;0.20;;;23.80;88.50;25.40;96786.00;;;;4966369;28;20222;-70
2021/08/31 11:45:57;;;;;;;0.60;0.47;;;24.20;85.50;24.60;96805.00;;;;4968078;28;20211;-70
2021/08/31 11:48:46;;;;;;;0.57;0.57;;;24.20;84.30;24.10;96809.00;;;;4958077;28;20214;-71
2021/08/31 11:51:36;;;;;;;0.20;0.20;;;24.00;79.60;23.60;96825.00;;;;4960108;28;20238;-69
2021/08/31 11:54:29;;;;;;;0.80;0.53;;;23.70;80.10;22.90;96816.00;;;;4952982;28;20206;-69
2021/08/31 11:57:20;;;;;;;0.20;0.20;;;23.40;81.20;22.10;96821.00;;;;4967359;28;20208;-69
2021/08/31 12:00:13;;;;;;;0.30;0.20;;;22.90;79.00;22.30;96816.00;;;;4961770;28;20205;-69
2021/08/31 12:03:02;;;;;;;1.43;1.00;;;22.50;80.60;22.20;96828.00;;;;4967033;28;20649;-70
2021/08/31 12:05:58;;;;;;;1.47;0.50;;;22.30;83.60;22.00;96824.00;;;;4952123;28;20286;-68
2021/08/31 12:08:48;;;;;;;0.50;0.30;;;22.00;84.10;21.90;96825.00;;;;4962673;28;20235;-70
2021/08/31 12:11:39;;;;;;;0.40;0.30;;;21.90;85.10;21.50;96820.00;;;;4955232;28;20278;-69
2021/08/31 12:14:28;;;;;;;0.23;0.20;;;21.70;85.50;21.80;96822.00;;;;4966792;28;20230;-69
2021/08/31 12:17:29;;;;;;;0.20;0.10;;;21.60;87.60;22.20;96818.00;;;;4966875;28;20214;-69
2021/08/31 12:20:25;;;;;;;0.20;0.20;;;21.60;88.70;22.20;96826.00;;;;4957743;28;20207;-68
2021/08/31 12:23:14;;;;;;;0.20;0.10;;;21.60;88.50;22.50;96812.00;;;;4955836;28;20214;-68
2021/08/31 12:26:03;;;;;;;0.87;0.30;;;21.80;89.00;22.50;96819.00;;;;4965831;28;20203;-68
2021/08/31 12:29:02;;;;;;;0.40;0.37;;;21.90;86.30;22.80;96825.00;;;;4964335;28;20207;-69
2021/08/31 12:32:09;;;;;;;0.30;0.17;;;22.00;86.90;22.90;96823.00;;;;4959787;28;20231;-71
2021/08/31 12:35:21;;;;;;;1.27;0.40;;;22.20;86.60;22.90;96821.00;;;;4957333;28;20214;-69
2021/08/31 12:38:14;;;;;;;0.47;0.30;;;22.30;87.50;23.00;96807.00;;;;4956685;28;20218;-69
2021/08/31 12:41:10;;;;;;;0.30;0.30;;;22.40;87.70;23.00;96806.00;;;;4967314;28;20471;-68
2021/08/31 12:44:02;;;;;;;0.30;0.20;;;22.40;86.50;23.30;96802.00;;;;4966129;28;20231;-68
2021/08/31 12:47:07;;;;;;;1.80;0.50;;;22.50;88.00;23.40;96795.00;;;;4966777;28;20207;-69